sensor_id;sensor_type;location;lat;lon;timestamp;P1;durP1;ratioP1;P2;durP2;ratioP2
2191;SDS011;1102;49.718;11.902;2022-07-21T00:01:12;6.33;;;5.73;;
2191;SDS011;1102;49.718;11.902;2022-07-21T00:03:39;6.70;;;5.30;;
2191;SDS011;1102;49.718;11.902;2022-07-21T00:06:06;7.27;;;5.50;;
2191;SDS011;1102;49.718;11.902;2022-07-21T00:08:33;5.83;;;5.10;;
2191;SDS011;1102;49.718;11.902;2022-07-21T00:11:00;4.80;;;4.30;;
2191;SDS011;1102;49.718;11.902;2022-07-21T00:13:27;6.00;;;5.50;;
2191;SDS011;1102;49.718;11.902;2022-07-21T00:15:54;4.97;;;4.50;;
2191;SDS011;1102;49.718;11.902;2022-07-21T00:18:21;6.30;;;5.80;;
2191;SDS011;1102;49.718;11.902;2022-07-21T00:20:48;5.30;;;3.87;;
2191;SDS011;1102;49.718;11.902;2022-07-21T00:23:15;5.33;;;4.83;;
2191;SDS011;1102;49.718;11.902;2022-07-21T00:25:43;5.20;;;4.80;;
2191;SDS011;1102;49.718;11.902;2022-07-21T00:28:10;5.70;;;5.17;;
2191;SDS011;1102;49.718;11.902;2022-07-21T00:30:36;6.73;;;4.80;;
2191;SDS011;1102;49.718;11.902;2022-07-21T00:33:03;5.10;;;4.70;;
2191;SDS011;1102;49.718;11.902;2022-07-21T00:35:30;5.10;;;4.70;;
2191;SDS011;1102;49.718;11.902;2022-07-21T00:37:57;6.00;;;5.17;;
2191;SDS011;1102;49.718;11.902;2022-07-21T00:40:24;5.27;;;4.87;;
2191;SDS011;1102;49.718;11.902;2022-07-21T00:42:51;6.50;;;5.90;;
2191;SDS011;1102;49.718;11.902;2022-07-21T00:45:18;6.20;;;5.60;;
2191;SDS011;1102;49.718;11.902;2022-07-21T00:47:45;5.93;;;5.23;;
2191;SDS011;1102;49.718;11.902;2022-07-21T00:50:13;7.30;;;6.70;;
2191;SDS011;1102;49.718;11.902;2022-07-21T00:52:41;6.00;;;5.50;;
2191;SDS011;1102;49.718;11.902;2022-07-21T00:55:10;7.10;;;6.50;;
2191;SDS011;1102;49.718;11.902;2022-07-21T00:57:40;6.13;;;5.47;;
2191;SDS011;1102;49.718;11.902;2022-07-21T01:00:08;6.10;;;5.60;;
2191;SDS011;1102;49.718;11.902;2022-07-21T01:02:37;6.40;;;5.83;;
2191;SDS011;1102;49.718;11.902;2022-07-21T01:05:07;7.90;;;5.93;;
2191;SDS011;1102;49.718;11.902;2022-07-21T01:07:39;8.00;;;6.90;;
2191;SDS011;1102;49.718;11.902;2022-07-21T01:10:10;6.53;;;5.93;;
2191;SDS011;1102;49.718;11.902;2022-07-21T01:12:38;7.23;;;6.53;;
2191;SDS011;1102;49.718;11.902;2022-07-21T01:15:06;8.53;;;7.50;;
2191;SDS011;1102;49.718;11.902;2022-07-21T01:17:35;6.50;;;5.90;;
2191;SDS011;1102;49.718;11.902;2022-07-21T01:20:03;6.97;;;6.37;;
2191;SDS011;1102;49.718;11.902;2022-07-21T01:22:35;7.90;;;6.00;;
2191;SDS011;1102;49.718;11.902;2022-07-21T01:25:04;10.47;;;6.57;;
2191;SDS011;1102;49.718;11.902;2022-07-21T01:27:32;8.03;;;7.33;;
2191;SDS011;1102;49.718;11.902;2022-07-21T01:29:59;6.10;;;5.70;;
2191;SDS011;1102;49.718;11.902;2022-07-21T01:32:26;7.07;;;6.47;;
2191;SDS011;1102;49.718;11.902;2022-07-21T01:34:53;7.47;;;6.73;;
2191;SDS011;1102;49.718;11.902;2022-07-21T01:37:23;6.60;;;6.00;;
2191;SDS011;1102;49.718;11.902;2022-07-21T01:39:54;6.73;;;6.10;;
2191;SDS011;1102;49.718;11.902;2022-07-21T01:42:40;6.67;;;6.17;;
2191;SDS011;1102;49.718;11.902;2022-07-21T01:45:07;7.50;;;6.90;;
2191;SDS011;1102;49.718;11.902;2022-07-21T01:47:34;7.53;;;6.80;;
2191;SDS011;1102;49.718;11.902;2022-07-21T01:50:01;7.83;;;6.07;;
2191;SDS011;1102;49.718;11.902;2022-07-21T01:52:28;10.30;;;7.10;;
2191;SDS011;1102;49.718;11.902;2022-07-21T01:54:55;7.40;;;6.70;;
2191;SDS011;1102;49.718;11.902;2022-07-21T01:57:22;6.73;;;6.23;;
2191;SDS011;1102;49.718;11.902;2022-07-21T01:59:48;7.20;;;6.50;;
2191;SDS011;1102;49.718;11.902;2022-07-21T02:02:15;6.90;;;6.30;;
2191;SDS011;1102;49.718;11.902;2022-07-21T02:04:47;7.30;;;6.23;;
2191;SDS011;1102;49.718;11.902;2022-07-21T02:07:15;11.60;;;6.93;;
2191;SDS011;1102;49.718;11.902;2022-07-21T02:09:42;8.97;;;6.67;;
2191;SDS011;1102;49.718;11.902;2022-07-21T02:12:09;8.90;;;6.40;;
2191;SDS011;1102;49.718;11.902;2022-07-21T02:14:36;8.27;;;7.47;;
2191;SDS011;1102;49.718;11.902;2022-07-21T02:17:03;7.40;;;6.70;;
2191;SDS011;1102;49.718;11.902;2022-07-21T02:19:30;7.10;;;6.40;;
2191;SDS011;1102;49.718;11.902;2022-07-21T02:21:56;6.70;;;6.07;;
2191;SDS011;1102;49.718;11.902;2022-07-21T02:24:23;8.93;;;6.90;;
2191;SDS011;1102;49.718;11.902;2022-07-21T02:26:50;7.27;;;6.57;;
2191;SDS011;1102;49.718;11.902;2022-07-21T02:29:16;10.60;;;6.73;;
2191;SDS011;1102;49.718;11.902;2022-07-21T02:31:43;7.27;;;6.57;;
2191;SDS011;1102;49.718;11.902;2022-07-21T02:34:10;7.63;;;6.90;;
2191;SDS011;1102;49.718;11.902;2022-07-21T02:36:36;7.03;;;6.33;;
2191;SDS011;1102;49.718;11.902;2022-07-21T02:39:03;8.20;;;6.97;;
2191;SDS011;1102;49.718;11.902;2022-07-21T02:41:30;7.87;;;6.67;;
2191;SDS011;1102;49.718;11.902;2022-07-21T02:43:56;6.90;;;6.40;;
2191;SDS011;1102;49.718;11.902;2022-07-21T02:46:23;7.67;;;6.33;;
2191;SDS011;1102;49.718;11.902;2022-07-21T02:48:50;7.53;;;6.83;;
2191;SDS011;1102;49.718;11.902;2022-07-21T02:51:17;7.43;;;6.73;;
2191;SDS011;1102;49.718;11.902;2022-07-21T02:53:43;7.07;;;6.40;;
2191;SDS011;1102;49.718;11.902;2022-07-21T02:56:10;8.73;;;7.00;;
2191;SDS011;1102;49.718;11.902;2022-07-21T02:58:37;7.33;;;6.70;;
2191;SDS011;1102;49.718;11.902;2022-07-21T03:01:05;7.23;;;6.33;;
2191;SDS011;1102;49.718;11.902;2022-07-21T03:03:33;8.60;;;6.50;;
2191;SDS011;1102;49.718;11.902;2022-07-21T03:06:02;7.80;;;7.17;;
2191;SDS011;1102;49.718;11.902;2022-07-21T03:08:30;8.23;;;6.33;;
2191;SDS011;1102;49.718;11.902;2022-07-21T03:10:57;6.37;;;5.77;;
2191;SDS011;1102;49.718;11.902;2022-07-21T03:13:24;7.33;;;6.60;;
2191;SDS011;1102;49.718;11.902;2022-07-21T03:15:50;7.60;;;6.80;;
2191;SDS011;1102;49.718;11.902;2022-07-21T03:18:17;7.83;;;6.60;;
2191;SDS011;1102;49.718;11.902;2022-07-21T03:20:44;10.13;;;6.70;;
2191;SDS011;1102;49.718;11.902;2022-07-21T03:23:12;6.17;;;5.70;;
2191;SDS011;1102;49.718;11.902;2022-07-21T03:25:38;7.60;;;6.77;;
2191;SDS011;1102;49.718;11.902;2022-07-21T03:28:05;6.00;;;5.50;;
2191;SDS011;1102;49.718;11.902;2022-07-21T03:30:33;7.30;;;6.60;;
2191;SDS011;1102;49.718;11.902;2022-07-21T03:33:00;7.10;;;6.40;;
2191;SDS011;1102;49.718;11.902;2022-07-21T03:35:27;7.33;;;6.80;;
2191;SDS011;1102;49.718;11.902;2022-07-21T03:37:55;7.10;;;6.30;;
2191;SDS011;1102;49.718;11.902;2022-07-21T03:40:24;7.43;;;6.73;;
2191;SDS011;1102;49.718;11.902;2022-07-21T03:42:54;7.87;;;7.10;;
2191;SDS011;1102;49.718;11.902;2022-07-21T03:45:22;8.87;;;7.50;;
2191;SDS011;1102;49.718;11.902;2022-07-21T03:47:50;7.93;;;7.00;;
2191;SDS011;1102;49.718;11.902;2022-07-21T03:50:17;7.73;;;7.13;;
2191;SDS011;1102;49.718;11.902;2022-07-21T03:52:44;8.17;;;7.53;;
2191;SDS011;1102;49.718;11.902;2022-07-21T03:55:12;9.50;;;7.73;;
2191;SDS011;1102;49.718;11.902;2022-07-21T03:57:42;9.63;;;8.63;;
2191;SDS011;1102;49.718;11.902;2022-07-21T04:00:16;9.40;;;8.40;;
2191;SDS011;1102;49.718;11.902;2022-07-21T04:02:45;8.07;;;7.37;;
2191;SDS011;1102;49.718;11.902;2022-07-21T04:05:13;8.87;;;7.87;;
2191;SDS011;1102;49.718;11.902;2022-07-21T04:07:40;8.90;;;8.00;;
2191;SDS011;1102;49.718;11.902;2022-07-21T04:10:09;9.27;;;8.30;;
2191;SDS011;1102;49.718;11.902;2022-07-21T04:12:38;9.60;;;8.80;;
2191;SDS011;1102;49.718;11.902;2022-07-21T04:15:05;9.85;;;8.93;;
2191;SDS011;1102;49.718;11.902;2022-07-21T04:17:34;10.93;;;9.83;;
2191;SDS011;1102;49.718;11.902;2022-07-21T04:20:01;12.23;;;10.33;;
2191;SDS011;1102;49.718;11.902;2022-07-21T04:22:28;11.70;;;10.60;;
2191;SDS011;1102;49.718;11.902;2022-07-21T04:24:55;11.77;;;10.53;;
2191;SDS011;1102;49.718;11.902;2022-07-21T04:27:22;11.63;;;9.47;;
2191;SDS011;1102;49.718;11.902;2022-07-21T04:29:49;14.00;;;10.50;;
2191;SDS011;1102;49.718;11.902;2022-07-21T04:32:15;12.07;;;10.90;;
2191;SDS011;1102;49.718;11.902;2022-07-21T04:34:42;13.90;;;12.23;;
2191;SDS011;1102;49.718;11.902;2022-07-21T04:37:09;18.60;;;13.10;;
2191;SDS011;1102;49.718;11.902;2022-07-21T04:39:35;20.63;;;13.60;;
2191;SDS011;1102;49.718;11.902;2022-07-21T04:42:02;16.93;;;12.07;;
2191;SDS011;1102;49.718;11.902;2022-07-21T04:44:30;17.37;;;13.10;;
2191;SDS011;1102;49.718;11.902;2022-07-21T04:46:57;16.70;;;12.37;;
2191;SDS011;1102;49.718;11.902;2022-07-21T04:49:24;20.33;;;14.07;;
2191;SDS011;1102;49.718;11.902;2022-07-21T04:51:50;17.30;;;15.37;;
2191;SDS011;1102;49.718;11.902;2022-07-21T04:54:17;30.47;;;17.67;;
2191;SDS011;1102;49.718;11.902;2022-07-21T04:56:44;26.80;;;18.20;;
2191;SDS011;1102;49.718;11.902;2022-07-21T04:59:11;27.17;;;19.53;;
2191;SDS011;1102;49.718;11.902;2022-07-21T05:01:38;32.77;;;19.03;;
2191;SDS011;1102;49.718;11.902;2022-07-21T05:04:05;29.83;;;18.40;;
2191;SDS011;1102;49.718;11.902;2022-07-21T05:06:33;22.77;;;16.10;;
2191;SDS011;1102;49.718;11.902;2022-07-21T05:09:00;26.40;;;16.60;;
2191;SDS011;1102;49.718;11.902;2022-07-21T05:11:26;21.50;;;14.60;;
2191;SDS011;1102;49.718;11.902;2022-07-21T05:13:53;19.37;;;12.90;;
2191;SDS011;1102;49.718;11.902;2022-07-21T05:16:20;12.57;;;10.20;;
2191;SDS011;1102;49.718;11.902;2022-07-21T05:18:48;14.77;;;9.63;;
2191;SDS011;1102;49.718;11.902;2022-07-21T05:21:15;9.97;;;8.80;;
2191;SDS011;1102;49.718;11.902;2022-07-21T05:23:41;9.00;;;8.10;;
2191;SDS011;1102;49.718;11.902;2022-07-21T05:26:08;8.80;;;7.90;;
2191;SDS011;1102;49.718;11.902;2022-07-21T05:28:35;9.20;;;7.83;;
2191;SDS011;1102;49.718;11.902;2022-07-21T05:31:02;9.17;;;8.30;;
2191;SDS011;1102;49.718;11.902;2022-07-21T05:33:28;8.60;;;7.80;;
2191;SDS011;1102;49.718;11.902;2022-07-21T05:35:55;8.63;;;7.90;;
2191;SDS011;1102;49.718;11.902;2022-07-21T05:38:22;8.57;;;7.77;;
2191;SDS011;1102;49.718;11.902;2022-07-21T05:40:53;8.33;;;7.53;;
2191;SDS011;1102;49.718;11.902;2022-07-21T05:43:20;8.30;;;7.60;;
2191;SDS011;1102;49.718;11.902;2022-07-21T05:45:47;7.53;;;6.70;;
2191;SDS011;1102;49.718;11.902;2022-07-21T05:48:14;7.70;;;7.00;;
2191;SDS011;1102;49.718;11.902;2022-07-21T05:50:41;9.50;;;7.80;;
2191;SDS011;1102;49.718;11.902;2022-07-21T05:53:08;9.10;;;8.00;;
2191;SDS011;1102;49.718;11.902;2022-07-21T05:55:34;8.60;;;7.90;;
2191;SDS011;1102;49.718;11.902;2022-07-21T05:58:01;8.47;;;7.50;;
2191;SDS011;1102;49.718;11.902;2022-07-21T06:00:36;8.77;;;7.80;;
2191;SDS011;1102;49.718;11.902;2022-07-21T06:03:03;8.70;;;6.90;;
2191;SDS011;1102;49.718;11.902;2022-07-21T06:05:37;7.17;;;6.57;;
2191;SDS011;1102;49.718;11.902;2022-07-21T06:08:04;8.17;;;7.37;;
2191;SDS011;1102;49.718;11.902;2022-07-21T06:10:31;8.50;;;6.50;;
2191;SDS011;1102;49.718;11.902;2022-07-21T06:12:59;14.43;;;8.37;;
2191;SDS011;1102;49.718;11.902;2022-07-21T06:15:26;7.93;;;7.23;;
2191;SDS011;1102;49.718;11.902;2022-07-21T06:17:52;15.83;;;8.03;;
2191;SDS011;1102;49.718;11.902;2022-07-21T06:20:20;14.60;;;7.00;;
2191;SDS011;1102;49.718;11.902;2022-07-21T06:22:48;8.00;;;7.30;;
2191;SDS011;1102;49.718;11.902;2022-07-21T06:25:14;8.73;;;7.20;;
2191;SDS011;1102;49.718;11.902;2022-07-21T06:27:41;8.37;;;7.77;;
2191;SDS011;1102;49.718;11.902;2022-07-21T06:30:08;8.10;;;7.40;;
2191;SDS011;1102;49.718;11.902;2022-07-21T06:32:36;10.40;;;8.90;;
2191;SDS011;1102;49.718;11.902;2022-07-21T06:35:03;9.77;;;8.43;;
2191;SDS011;1102;49.718;11.902;2022-07-21T06:37:30;8.80;;;8.00;;
2191;SDS011;1102;49.718;11.902;2022-07-21T06:39:57;11.80;;;8.67;;
2191;SDS011;1102;49.718;11.902;2022-07-21T06:42:24;10.70;;;9.03;;
2191;SDS011;1102;49.718;11.902;2022-07-21T06:44:51;10.70;;;9.27;;
2191;SDS011;1102;49.718;11.902;2022-07-21T06:47:18;9.77;;;8.77;;
2191;SDS011;1102;49.718;11.902;2022-07-21T06:49:46;10.53;;;8.73;;
2191;SDS011;1102;49.718;11.902;2022-07-21T06:52:12;9.63;;;8.83;;
2191;SDS011;1102;49.718;11.902;2022-07-21T06:54:39;10.37;;;9.47;;
2191;SDS011;1102;49.718;11.902;2022-07-21T06:57:06;11.80;;;9.10;;
2191;SDS011;1102;49.718;11.902;2022-07-21T06:59:33;11.97;;;10.53;;
2191;SDS011;1102;49.718;11.902;2022-07-21T07:02:00;13.07;;;10.00;;
2191;SDS011;1102;49.718;11.902;2022-07-21T07:04:27;11.60;;;10.40;;
2191;SDS011;1102;49.718;11.902;2022-07-21T07:06:54;11.20;;;10.20;;
2191;SDS011;1102;49.718;11.902;2022-07-21T07:09:22;10.73;;;9.70;;
2191;SDS011;1102;49.718;11.902;2022-07-21T07:11:49;11.17;;;10.27;;
2191;SDS011;1102;49.718;11.902;2022-07-21T07:14:38;11.07;;;10.23;;
2191;SDS011;1102;49.718;11.902;2022-07-21T07:17:05;12.10;;;10.47;;
2191;SDS011;1102;49.718;11.902;2022-07-21T07:19:32;14.97;;;10.60;;
2191;SDS011;1102;49.718;11.902;2022-07-21T07:21:59;11.63;;;10.60;;
2191;SDS011;1102;49.718;11.902;2022-07-21T07:24:25;10.80;;;9.80;;
2191;SDS011;1102;49.718;11.902;2022-07-21T07:26:52;15.70;;;10.20;;
2191;SDS011;1102;49.718;11.902;2022-07-21T07:29:19;11.30;;;10.20;;
2191;SDS011;1102;49.718;11.902;2022-07-21T07:31:46;10.67;;;9.57;;
2191;SDS011;1102;49.718;11.902;2022-07-21T07:34:12;11.90;;;10.70;;
2191;SDS011;1102;49.718;11.902;2022-07-21T07:36:39;11.90;;;10.70;;
2191;SDS011;1102;49.718;11.902;2022-07-21T07:39:10;12.50;;;11.50;;
2191;SDS011;1102;49.718;11.902;2022-07-21T07:41:38;11.67;;;10.57;;
2191;SDS011;1102;49.718;11.902;2022-07-21T07:44:04;11.30;;;10.20;;
2191;SDS011;1102;49.718;11.902;2022-07-21T07:46:31;12.87;;;11.57;;
2191;SDS011;1102;49.718;11.902;2022-07-21T07:48:58;11.90;;;10.80;;
2191;SDS011;1102;49.718;11.902;2022-07-21T07:51:36;11.60;;;10.47;;
2191;SDS011;1102;49.718;11.902;2022-07-21T07:54:03;14.33;;;12.23;;
2191;SDS011;1102;49.718;11.902;2022-07-21T07:56:30;11.93;;;10.93;;
2191;SDS011;1102;49.718;11.902;2022-07-21T07:58:58;12.23;;;11.23;;
2191;SDS011;1102;49.718;11.902;2022-07-21T08:01:25;11.57;;;10.50;;
2191;SDS011;1102;49.718;11.902;2022-07-21T08:03:52;12.13;;;10.97;;
2191;SDS011;1102;49.718;11.902;2022-07-21T08:06:19;12.17;;;11.17;;
2191;SDS011;1102;49.718;11.902;2022-07-21T08:08:46;13.87;;;11.87;;
2191;SDS011;1102;49.718;11.902;2022-07-21T08:11:13;12.53;;;11.43;;
2191;SDS011;1102;49.718;11.902;2022-07-21T08:13:40;12.20;;;11.10;;
2191;SDS011;1102;49.718;11.902;2022-07-21T08:16:07;12.20;;;11.20;;
2191;SDS011;1102;49.718;11.902;2022-07-21T08:18:35;12.03;;;11.03;;
2191;SDS011;1102;49.718;11.902;2022-07-21T08:21:01;12.63;;;11.57;;
2191;SDS011;1102;49.718;11.902;2022-07-21T08:23:28;12.10;;;11.10;;
2191;SDS011;1102;49.718;11.902;2022-07-21T08:25:55;12.03;;;11.13;;
2191;SDS011;1102;49.718;11.902;2022-07-21T08:28:21;12.77;;;11.77;;
2191;SDS011;1102;49.718;11.902;2022-07-21T08:30:48;13.23;;;12.17;;
2191;SDS011;1102;49.718;11.902;2022-07-21T08:33:15;13.67;;;12.17;;
2191;SDS011;1102;49.718;11.902;2022-07-21T08:35:42;13.07;;;11.90;;
2191;SDS011;1102;49.718;11.902;2022-07-21T08:38:09;13.60;;;12.50;;
2191;SDS011;1102;49.718;11.902;2022-07-21T08:40:41;13.73;;;12.47;;
2191;SDS011;1102;49.718;11.902;2022-07-21T08:43:10;14.20;;;13.10;;
2191;SDS011;1102;49.718;11.902;2022-07-21T08:45:38;13.30;;;12.00;;
2191;SDS011;1102;49.718;11.902;2022-07-21T08:48:05;13.00;;;11.70;;
2191;SDS011;1102;49.718;11.902;2022-07-21T08:50:34;14.40;;;13.10;;
2191;SDS011;1102;49.718;11.902;2022-07-21T08:53:04;14.50;;;13.13;;
2191;SDS011;1102;49.718;11.902;2022-07-21T08:55:31;15.70;;;14.40;;
2191;SDS011;1102;49.718;11.902;2022-07-21T08:57:59;15.27;;;13.70;;
2191;SDS011;1102;49.718;11.902;2022-07-21T09:00:32;15.93;;;14.47;;
2191;SDS011;1102;49.718;11.902;2022-07-21T09:03:07;16.67;;;15.37;;
2191;SDS011;1102;49.718;11.902;2022-07-21T09:05:35;16.67;;;15.17;;
2191;SDS011;1102;49.718;11.902;2022-07-21T09:08:02;16.13;;;14.73;;
2191;SDS011;1102;49.718;11.902;2022-07-21T09:10:29;16.53;;;14.90;;
2191;SDS011;1102;49.718;11.902;2022-07-21T09:12:59;18.10;;;16.30;;
2191;SDS011;1102;49.718;11.902;2022-07-21T09:15:33;16.00;;;14.70;;
2191;SDS011;1102;49.718;11.902;2022-07-21T09:20:51;16.37;;;14.90;;
2191;SDS011;1102;49.718;11.902;2022-07-21T09:23:21;17.83;;;16.17;;
2191;SDS011;1102;49.718;11.902;2022-07-21T09:25:50;17.73;;;15.97;;
2191;SDS011;1102;49.718;11.902;2022-07-21T09:28:25;20.13;;;18.30;;
2191;SDS011;1102;49.718;11.902;2022-07-21T09:31:02;19.70;;;17.80;;
2191;SDS011;1102;49.718;11.902;2022-07-21T09:33:30;21.27;;;19.00;;
2191;SDS011;1102;49.718;11.902;2022-07-21T09:36:02;19.50;;;17.90;;
2191;SDS011;1102;49.718;11.902;2022-07-21T09:38:32;19.97;;;18.20;;
2191;SDS011;1102;49.718;11.902;2022-07-21T09:41:04;20.13;;;18.03;;
2191;SDS011;1102;49.718;11.902;2022-07-21T09:43:42;18.07;;;16.37;;
2191;SDS011;1102;49.718;11.902;2022-07-21T09:46:24;19.30;;;17.60;;
2191;SDS011;1102;49.718;11.902;2022-07-21T09:48:56;20.10;;;18.30;;
2191;SDS011;1102;49.718;11.902;2022-07-21T09:51:46;20.47;;;18.27;;
2191;SDS011;1102;49.718;11.902;2022-07-21T09:54:14;19.00;;;17.30;;
2191;SDS011;1102;49.718;11.902;2022-07-21T09:56:41;18.67;;;16.97;;
2191;SDS011;1102;49.718;11.902;2022-07-21T09:59:11;19.30;;;17.60;;
2191;SDS011;1102;49.718;11.902;2022-07-21T10:01:40;20.00;;;18.00;;
2191;SDS011;1102;49.718;11.902;2022-07-21T10:04:08;21.10;;;18.87;;
2191;SDS011;1102;49.718;11.902;2022-07-21T10:06:36;21.53;;;19.23;;
2191;SDS011;1102;49.718;11.902;2022-07-21T10:09:08;21.00;;;19.10;;
2191;SDS011;1102;49.718;11.902;2022-07-21T10:11:39;23.37;;;21.17;;
2191;SDS011;1102;49.718;11.902;2022-07-21T10:14:11;21.30;;;19.30;;
2191;SDS011;1102;49.718;11.902;2022-07-21T10:16:38;22.03;;;20.13;;
2191;SDS011;1102;49.718;11.902;2022-07-21T10:21:55;20.70;;;18.97;;
2191;SDS011;1102;49.718;11.902;2022-07-21T10:24:27;21.83;;;19.93;;
2191;SDS011;1102;49.718;11.902;2022-07-21T10:26:59;23.13;;;21.23;;
2191;SDS011;1102;49.718;11.902;2022-07-21T10:32:15;23.17;;;21.07;;
2191;SDS011;1102;49.718;11.902;2022-07-21T10:34:43;20.27;;;18.23;;
2191;SDS011;1102;49.718;11.902;2022-07-21T10:37:10;22.73;;;20.63;;
2191;SDS011;1102;49.718;11.902;2022-07-21T10:39:37;21.13;;;19.20;;
2191;SDS011;1102;49.718;11.902;2022-07-21T10:42:15;21.50;;;19.50;;
2191;SDS011;1102;49.718;11.902;2022-07-21T10:44:46;22.70;;;20.50;;
2191;SDS011;1102;49.718;11.902;2022-07-21T10:47:15;20.70;;;18.77;;
2191;SDS011;1102;49.718;11.902;2022-07-21T10:49:53;20.90;;;19.10;;
2191;SDS011;1102;49.718;11.902;2022-07-21T11:03:22;20.47;;;18.67;;
2191;SDS011;1102;49.718;11.902;2022-07-21T11:08:44;19.87;;;18.17;;
2191;SDS011;1102;49.718;11.902;2022-07-21T11:13:59;19.23;;;17.50;;
2191;SDS011;1102;49.718;11.902;2022-07-21T11:21:58;21.00;;;19.20;;
2191;SDS011;1102;49.718;11.902;2022-07-21T11:24:26;21.13;;;19.33;;
2191;SDS011;1102;49.718;11.902;2022-07-21T11:26:54;20.03;;;18.13;;
2191;SDS011;1102;49.718;11.902;2022-07-21T11:29:28;21.10;;;19.13;;
2191;SDS011;1102;49.718;11.902;2022-07-21T11:31:56;22.20;;;20.23;;
2191;SDS011;1102;49.718;11.902;2022-07-21T11:34:23;20.93;;;19.10;;
2191;SDS011;1102;49.718;11.902;2022-07-21T11:36:57;20.90;;;18.77;;
2191;SDS011;1102;49.718;11.902;2022-07-21T11:39:45;20.37;;;18.60;;
2191;SDS011;1102;49.718;11.902;2022-07-21T11:42:13;23.73;;;20.57;;
2191;SDS011;1102;49.718;11.902;2022-07-21T11:44:41;22.90;;;20.63;;
2191;SDS011;1102;49.718;11.902;2022-07-21T11:47:10;20.70;;;18.70;;
2191;SDS011;1102;49.718;11.902;2022-07-21T11:49:39;21.00;;;19.03;;
2191;SDS011;1102;49.718;11.902;2022-07-21T11:52:09;18.97;;;17.17;;
2191;SDS011;1102;49.718;11.902;2022-07-21T11:54:47;18.50;;;17.00;;
2191;SDS011;1102;49.718;11.902;2022-07-21T11:57:18;19.40;;;17.23;;
2191;SDS011;1102;49.718;11.902;2022-07-21T11:59:46;20.73;;;18.63;;
2191;SDS011;1102;49.718;11.902;2022-07-21T12:09:53;19.60;;;17.70;;
2191;SDS011;1102;49.718;11.902;2022-07-21T12:15:11;18.07;;;16.70;;
2191;SDS011;1102;49.718;11.902;2022-07-21T12:17:58;18.17;;;16.67;;
2191;SDS011;1102;49.718;11.902;2022-07-21T12:20:32;17.77;;;16.30;;
2191;SDS011;1102;49.718;11.902;2022-07-21T12:23:01;19.20;;;17.60;;
2191;SDS011;1102;49.718;11.902;2022-07-21T12:25:36;18.43;;;16.93;;
2191;SDS011;1102;49.718;11.902;2022-07-21T12:28:05;18.53;;;16.83;;
2191;SDS011;1102;49.718;11.902;2022-07-21T12:30:34;18.93;;;17.17;;
2191;SDS011;1102;49.718;11.902;2022-07-21T12:33:04;18.70;;;17.00;;
2191;SDS011;1102;49.718;11.902;2022-07-21T12:35:33;18.83;;;17.23;;
2191;SDS011;1102;49.718;11.902;2022-07-21T12:38:02;19.57;;;17.97;;
2191;SDS011;1102;49.718;11.902;2022-07-21T12:40:36;21.40;;;19.20;;
2191;SDS011;1102;49.718;11.902;2022-07-21T12:43:20;19.07;;;17.30;;
2191;SDS011;1102;49.718;11.902;2022-07-21T12:45:48;20.87;;;18.90;;
2191;SDS011;1102;49.718;11.902;2022-07-21T12:48:36;16.73;;;15.27;;
2191;SDS011;1102;49.718;11.902;2022-07-21T12:56:18;13.33;;;12.13;;
2191;SDS011;1102;49.718;11.902;2022-07-21T12:58:48;13.07;;;11.90;;
2191;SDS011;1102;49.718;11.902;2022-07-21T13:01:17;14.70;;;13.53;;
2191;SDS011;1102;49.718;11.902;2022-07-21T13:03:45;14.23;;;13.07;;
2191;SDS011;1102;49.718;11.902;2022-07-21T13:06:12;13.60;;;12.40;;
2191;SDS011;1102;49.718;11.902;2022-07-21T13:08:41;10.53;;;9.73;;
2191;SDS011;1102;49.718;11.902;2022-07-21T13:11:08;11.30;;;10.40;;
2191;SDS011;1102;49.718;11.902;2022-07-21T13:13:38;9.47;;;8.67;;
2191;SDS011;1102;49.718;11.902;2022-07-21T13:16:05;9.63;;;8.90;;
2191;SDS011;1102;49.718;11.902;2022-07-21T13:18:33;10.50;;;9.40;;
2191;SDS011;1102;49.718;11.902;2022-07-21T13:21:01;10.97;;;9.97;;
2191;SDS011;1102;49.718;11.902;2022-07-21T13:23:28;9.40;;;8.60;;
2191;SDS011;1102;49.718;11.902;2022-07-21T13:25:54;8.33;;;7.57;;
2191;SDS011;1102;49.718;11.902;2022-07-21T13:28:30;11.00;;;10.10;;
2191;SDS011;1102;49.718;11.902;2022-07-21T13:30:57;10.57;;;9.67;;
2191;SDS011;1102;49.718;11.902;2022-07-21T13:33:24;10.50;;;9.70;;
2191;SDS011;1102;49.718;11.902;2022-07-21T13:35:51;10.77;;;9.97;;
2191;SDS011;1102;49.718;11.902;2022-07-21T13:38:17;10.90;;;10.07;;
2191;SDS011;1102;49.718;11.902;2022-07-21T13:40:44;10.57;;;9.67;;
2191;SDS011;1102;49.718;11.902;2022-07-21T13:43:31;8.53;;;7.83;;
2191;SDS011;1102;49.718;11.902;2022-07-21T13:46:05;7.93;;;7.33;;
2191;SDS011;1102;49.718;11.902;2022-07-21T13:48:32;9.33;;;8.53;;
2191;SDS011;1102;49.718;11.902;2022-07-21T13:51:08;10.70;;;9.80;;
2191;SDS011;1102;49.718;11.902;2022-07-21T13:53:35;12.37;;;11.27;;
2191;SDS011;1102;49.718;11.902;2022-07-21T13:56:02;11.13;;;9.60;;
2191;SDS011;1102;49.718;11.902;2022-07-21T13:58:30;10.23;;;8.73;;
2191;SDS011;1102;49.718;11.902;2022-07-21T14:00:56;9.73;;;8.93;;
2191;SDS011;1102;49.718;11.902;2022-07-21T14:03:23;9.27;;;8.57;;
2191;SDS011;1102;49.718;11.902;2022-07-21T14:05:50;10.17;;;9.23;;
2191;SDS011;1102;49.718;11.902;2022-07-21T14:08:17;9.40;;;8.60;;
2191;SDS011;1102;49.718;11.902;2022-07-21T14:10:44;10.57;;;9.67;;
2191;SDS011;1102;49.718;11.902;2022-07-21T14:13:11;9.60;;;8.90;;
2191;SDS011;1102;49.718;11.902;2022-07-21T14:15:38;9.17;;;8.47;;
2191;SDS011;1102;49.718;11.902;2022-07-21T14:18:04;9.83;;;9.00;;
2191;SDS011;1102;49.718;11.902;2022-07-21T14:20:31;9.30;;;8.60;;
2191;SDS011;1102;49.718;11.902;2022-07-21T14:22:58;8.40;;;7.80;;
2191;SDS011;1102;49.718;11.902;2022-07-21T14:25:24;8.43;;;7.77;;
2191;SDS011;1102;49.718;11.902;2022-07-21T14:27:52;8.83;;;7.97;;
2191;SDS011;1102;49.718;11.902;2022-07-21T14:30:21;8.40;;;7.80;;
2191;SDS011;1102;49.718;11.902;2022-07-21T14:32:49;8.47;;;7.80;;
2191;SDS011;1102;49.718;11.902;2022-07-21T14:35:16;8.67;;;7.93;;
2191;SDS011;1102;49.718;11.902;2022-07-21T14:37:46;8.50;;;7.80;;
2191;SDS011;1102;49.718;11.902;2022-07-21T14:40:14;7.20;;;6.60;;
2191;SDS011;1102;49.718;11.902;2022-07-21T14:42:42;7.53;;;6.83;;
2191;SDS011;1102;49.718;11.902;2022-07-21T14:45:10;8.30;;;7.70;;
2191;SDS011;1102;49.718;11.902;2022-07-21T14:47:43;7.93;;;7.23;;
2191;SDS011;1102;49.718;11.902;2022-07-21T14:50:12;6.83;;;6.33;;
2191;SDS011;1102;49.718;11.902;2022-07-21T14:52:40;6.80;;;6.30;;
2191;SDS011;1102;49.718;11.902;2022-07-21T14:55:07;6.77;;;6.17;;
2191;SDS011;1102;49.718;11.902;2022-07-21T14:57:34;7.33;;;6.63;;
2191;SDS011;1102;49.718;11.902;2022-07-21T15:00:06;6.33;;;5.90;;
2191;SDS011;1102;49.718;11.902;2022-07-21T15:02:34;7.17;;;6.63;;
2191;SDS011;1102;49.718;11.902;2022-07-21T15:05:02;6.87;;;6.37;;
2191;SDS011;1102;49.718;11.902;2022-07-21T15:07:29;6.37;;;5.77;;
2191;SDS011;1102;49.718;11.902;2022-07-21T15:09:56;7.63;;;5.37;;
2191;SDS011;1102;49.718;11.902;2022-07-21T15:12:25;6.60;;;6.10;;
2191;SDS011;1102;49.718;11.902;2022-07-21T15:14:52;6.40;;;5.90;;
2191;SDS011;1102;49.718;11.902;2022-07-21T15:17:19;6.53;;;6.03;;
2191;SDS011;1102;49.718;11.902;2022-07-21T15:19:45;6.33;;;5.37;;
2191;SDS011;1102;49.718;11.902;2022-07-21T15:22:12;5.70;;;5.30;;
2191;SDS011;1102;49.718;11.902;2022-07-21T15:24:39;6.63;;;6.03;;
2191;SDS011;1102;49.718;11.902;2022-07-21T15:27:06;6.03;;;5.53;;
2191;SDS011;1102;49.718;11.902;2022-07-21T15:29:32;5.60;;;5.10;;
2191;SDS011;1102;49.718;11.902;2022-07-21T15:31:59;6.13;;;5.53;;
2191;SDS011;1102;49.718;11.902;2022-07-21T15:34:26;5.83;;;5.30;;
2191;SDS011;1102;49.718;11.902;2022-07-21T15:36:53;4.33;;;3.93;;
2191;SDS011;1102;49.718;11.902;2022-07-21T15:39:19;5.60;;;5.10;;
2191;SDS011;1102;49.718;11.902;2022-07-21T15:41:48;6.10;;;5.60;;